createdAt,value
2022-11-20T00:02:37.539Z,19.25
2022-11-20T00:07:42.286Z,14.60
2022-11-20T00:12:45.542Z,15.70
2022-11-20T00:17:49.075Z,16.23
2022-11-20T00:22:53.966Z,17.67
2022-11-20T00:27:57.426Z,15.65
2022-11-20T00:33:00.746Z,13.77
2022-11-20T00:38:05.363Z,18.27
2022-11-20T00:43:08.569Z,17.65
2022-11-20T00:48:12.074Z,14.18
2022-11-20T00:53:16.716Z,17.13
2022-11-20T00:58:20.169Z,16.05
2022-11-20T01:03:26.997Z,15.90
2022-11-20T01:08:34.057Z,14.82
2022-11-20T01:13:40.688Z,14.05
2022-11-20T01:18:45.404Z,14.15
2022-11-20T01:23:51.119Z,10.95
2022-11-20T01:28:55.719Z,12.52
2022-11-20T01:34:01.807Z,15.55
2022-11-20T01:39:09.260Z,12.63
2022-11-20T01:44:16.245Z,12.48
2022-11-20T01:49:22.599Z,12.77
2022-11-20T01:54:34.432Z,12.40
2022-11-20T01:59:44.256Z,15.32
2022-11-20T02:04:48.701Z,12.95
2022-11-20T02:09:58.540Z,12.88
2022-11-20T02:15:02.392Z,12.65
2022-11-20T02:25:12.805Z,14.02
2022-11-20T02:30:16.531Z,15.10
2022-11-20T02:35:43.449Z,12.85
2022-11-20T02:40:52.671Z,12.38
2022-11-20T02:45:58.557Z,14.10
2022-11-20T02:51:01.964Z,12.00
2022-11-20T02:56:07.680Z,13.60
2022-11-20T03:01:11.034Z,13.18
2022-11-20T03:06:14.908Z,11.63
2022-11-20T03:11:19.639Z,14.27
2022-11-20T03:21:27.140Z,12.15
2022-11-20T03:26:32.108Z,13.52
2022-11-20T03:31:37.930Z,11.48
2022-11-20T03:36:42.163Z,12.43
2022-11-20T03:41:46.872Z,12.88
2022-11-20T03:46:50.063Z,11.93
2022-11-20T03:51:53.272Z,11.85
2022-11-20T03:56:58.150Z,14.57
2022-11-20T04:02:01.404Z,12.43
2022-11-20T04:07:05.069Z,13.83
2022-11-20T04:12:09.729Z,12.48
2022-11-20T04:17:13.220Z,11.52
2022-11-20T04:22:16.588Z,12.40
2022-11-20T04:27:21.311Z,14.07
2022-11-20T04:37:28.020Z,12.23
2022-11-20T04:42:32.590Z,12.80
2022-11-20T04:47:35.950Z,12.38
2022-11-20T04:52:39.193Z,11.70
2022-11-20T04:57:43.883Z,13.52
2022-11-20T05:02:47.069Z,13.15
2022-11-20T05:07:50.484Z,12.75
2022-11-20T05:12:55.454Z,14.57
2022-11-20T05:17:58.871Z,15.57
2022-11-20T05:23:02.231Z,13.38
2022-11-20T05:28:08.181Z,18.60
2022-11-20T05:33:11.580Z,18.92
2022-11-20T05:38:15.079Z,20.80
2022-11-20T05:43:19.672Z,23.45
2022-11-20T05:48:23.304Z,18.30
2022-11-20T05:53:27.783Z,21.02
2022-11-20T05:58:33.750Z,19.88
2022-11-20T06:03:37.176Z,21.02
2022-11-20T06:08:40.681Z,22.63
2022-11-20T06:13:45.678Z,20.92
2022-11-20T06:18:50.157Z,19.75
2022-11-20T06:23:55.508Z,21.25
2022-11-20T06:29:00.122Z,22.85
2022-11-20T06:34:03.749Z,21.33
2022-11-20T06:39:06.982Z,21.95
2022-11-20T06:44:11.792Z,20.17
2022-11-20T06:54:18.056Z,22.90
2022-11-20T06:59:23.115Z,21.30
2022-11-20T07:04:26.702Z,22.98
2022-11-20T07:09:30.127Z,22.73
2022-11-20T07:14:34.780Z,21.13
2022-11-20T07:24:45.831Z,24.60
2022-11-20T07:29:51.057Z,21.90
2022-11-20T07:39:57.613Z,25.30
2022-11-20T07:45:02.338Z,25.77
2022-11-20T07:50:07.428Z,20.70
2022-11-20T07:55:11.822Z,23.05
2022-11-20T08:00:18.443Z,25.30
2022-11-20T08:05:21.646Z,21.33
2022-11-20T08:10:25.146Z,23.92
2022-11-20T08:15:29.835Z,20.60
2022-11-20T08:25:38.514Z,24.88
2022-11-20T08:30:43.154Z,25.83
2022-11-20T08:35:46.390Z,23.10
2022-11-20T08:41:03.568Z,24.05
2022-11-20T08:46:08.309Z,21.10
2022-11-20T08:51:12.089Z,21.50
2022-11-20T08:56:15.362Z,25.60
2022-11-20T09:01:20.311Z,24.73
2022-11-20T09:11:27.970Z,26.25
2022-11-20T09:16:32.860Z,22.95
2022-11-20T09:26:40.006Z,30.73
2022-11-20T09:31:44.854Z,30.03
2022-11-20T09:42:07.001Z,28.63
2022-11-20T09:47:19.568Z,29.77
2022-11-20T09:52:30.257Z,30.75
2022-11-20T09:57:38.957Z,29.70
2022-11-20T10:02:49.355Z,26.98
2022-11-20T10:07:58.090Z,28.77
2022-11-20T10:13:18.054Z,29.13
2022-11-20T10:18:35.841Z,31.60
2022-11-20T10:24:09.635Z,34.42
2022-11-20T10:29:15.461Z,35.53
2022-11-20T10:34:29.749Z,36.53
2022-11-20T10:39:41.030Z,40.13
2022-11-20T10:45:06.714Z,32.97
2022-11-20T10:50:22.406Z,35.17
2022-11-20T10:55:32.518Z,38.13
2022-11-20T11:00:36.572Z,35.03
2022-11-20T11:05:45.521Z,37.72
2022-11-20T11:10:54.073Z,28.90
2022-11-20T11:15:58.067Z,23.10
2022-11-20T11:21:05.010Z,20.33
2022-11-20T11:26:20.296Z,20.58
2022-11-20T11:31:29.876Z,19.73
2022-11-20T11:36:35.691Z,17.38
2022-11-20T11:41:39.394Z,18.27
2022-11-20T11:46:47.100Z,17.23
2022-11-20T11:52:04.623Z,16.48
2022-11-20T11:57:17.120Z,17.77
2022-11-20T12:02:33.596Z,17.83
2022-11-20T12:07:47.699Z,19.35
2022-11-20T12:12:57.157Z,18.35
2022-11-20T12:18:00.623Z,17.33
2022-11-20T12:23:16.863Z,18.10
2022-11-20T12:28:42.394Z,17.95
2022-11-20T12:34:08.310Z,18.80
2022-11-20T12:39:43.116Z,18.73
2022-11-20T12:45:21.062Z,22.17
2022-11-20T12:50:42.888Z,19.25
2022-11-20T12:56:08.443Z,20.20
2022-11-20T13:01:43.946Z,19.73
2022-11-20T13:06:47.580Z,22.02
2022-11-20T13:12:00.756Z,20.08
2022-11-20T13:17:11.980Z,18.92
2022-11-20T13:22:26.276Z,20.13
2022-11-20T13:27:32.347Z,20.10
2022-11-20T13:32:35.807Z,20.00
2022-11-20T13:37:40.701Z,18.45
2022-11-20T13:47:52.041Z,21.80
2022-11-20T13:53:03.172Z,23.77
2022-11-20T13:58:34.277Z,18.80
2022-11-20T14:04:04.414Z,21.40
2022-11-20T14:09:02.307Z,17.20
2022-11-20T14:14:17.530Z,17.73
2022-11-20T14:19:32.740Z,18.40
2022-11-20T14:24:36.617Z,16.60
2022-11-20T14:29:42.630Z,19.77
2022-11-20T14:34:48.545Z,18.67
2022-11-20T14:39:54.532Z,16.30
2022-11-20T14:45:00.880Z,17.33
2022-11-20T14:50:09.771Z,18.10
2022-11-20T14:55:26.820Z,21.73
2022-11-20T15:00:33.841Z,20.45
2022-11-20T15:05:51.924Z,25.55
2022-11-20T15:10:56.335Z,24.67
2022-11-20T15:16:02.908Z,18.05
2022-11-20T15:21:12.770Z,20.15
2022-11-20T15:26:20.230Z,16.88
2022-11-20T15:31:26.344Z,19.33
2022-11-20T15:36:29.779Z,16.55
2022-11-20T15:41:33.268Z,18.88
2022-11-20T15:46:43.462Z,19.60
2022-11-20T15:51:48.952Z,18.52
2022-11-20T15:56:54.289Z,19.70
2022-11-20T16:02:00.511Z,22.48
2022-11-20T16:07:04.189Z,20.50
2022-11-20T16:12:07.934Z,21.52
2022-11-20T16:17:13.258Z,20.55
2022-11-20T16:22:16.843Z,19.95
2022-11-20T16:27:20.280Z,20.33
2022-11-20T16:32:25.558Z,21.88
2022-11-20T16:37:28.899Z,22.15
2022-11-20T16:42:36.000Z,19.58
2022-11-20T16:47:40.787Z,21.58
2022-11-20T16:57:46.851Z,22.45
2022-11-20T17:02:51.543Z,26.20
2022-11-20T17:07:54.996Z,22.13
2022-11-20T17:12:58.218Z,19.88
2022-11-20T17:18:04.021Z,22.83
2022-11-20T17:23:07.214Z,19.35
2022-11-20T17:28:10.542Z,21.95
2022-11-20T17:33:15.207Z,19.42
2022-11-20T17:38:18.751Z,15.52
2022-11-20T17:43:22.001Z,22.55
2022-11-20T17:48:29.182Z,22.30
2022-11-20T17:53:35.820Z,24.77
2022-11-20T17:58:41.367Z,21.42
2022-11-20T18:03:46.426Z,23.25
2022-11-20T18:08:50.763Z,20.15
2022-11-20T18:14:12.663Z,20.92
2022-11-20T18:19:19.649Z,19.42
2022-11-20T18:24:23.731Z,17.83
2022-11-20T18:29:28.252Z,20.15
2022-11-20T18:34:33.629Z,18.15
2022-11-20T18:39:38.664Z,22.50
2022-11-20T18:44:54.872Z,22.75
2022-11-20T18:50:01.428Z,21.88
2022-11-20T18:55:08.161Z,21.55
2022-11-20T19:05:17.121Z,19.60
2022-11-20T19:10:21.580Z,20.08
2022-11-20T19:15:24.961Z,22.75
2022-11-20T19:20:29.604Z,20.27
2022-11-20T19:25:37.874Z,21.35
2022-11-20T19:30:42.149Z,22.85
2022-11-20T19:35:46.893Z,17.60
2022-11-20T19:40:50.344Z,20.77
2022-11-20T19:45:53.913Z,18.15
2022-11-20T19:50:58.467Z,19.75
2022-11-20T19:56:02.623Z,16.75
2022-11-20T20:01:10.338Z,17.27
2022-11-20T20:06:16.991Z,16.90
2022-11-20T20:11:22.009Z,17.73
2022-11-20T20:16:28.366Z,21.25
2022-11-20T20:21:34.404Z,15.65
2022-11-20T20:26:38.022Z,17.05
2022-11-20T20:31:41.702Z,17.13
2022-11-20T20:36:46.542Z,17.05
2022-11-20T20:46:53.484Z,17.85
2022-11-20T20:51:58.347Z,15.85
2022-11-20T20:57:01.683Z,16.45
2022-11-20T21:02:05.389Z,14.82
2022-11-20T21:07:11.203Z,17.33
2022-11-20T21:12:14.784Z,15.43
2022-11-20T21:17:18.269Z,17.05
2022-11-20T21:22:23.119Z,16.25
2022-11-20T21:27:26.634Z,14.57
2022-11-20T21:32:29.812Z,16.98
2022-11-20T21:37:39.637Z,15.95
2022-11-20T21:42:44.126Z,16.15
2022-11-20T21:47:50.475Z,13.48
2022-11-20T21:52:55.045Z,17.40
2022-11-20T21:57:58.610Z,15.07
2022-11-20T22:03:01.766Z,17.92
2022-11-20T22:08:07.285Z,16.33
2022-11-20T22:13:27.887Z,20.42
2022-11-20T22:18:31.388Z,17.83
2022-11-20T22:23:36.457Z,18.73
2022-11-20T22:28:40.520Z,22.17
2022-11-20T22:33:43.813Z,18.40
2022-11-20T22:38:49.227Z,19.08
2022-11-20T22:43:56.426Z,21.63
2022-11-20T22:49:01.288Z,22.52
2022-11-20T22:54:06.527Z,22.17
2022-11-20T22:59:10.125Z,21.20
2022-11-20T23:04:13.479Z,22.33
2022-11-20T23:09:18.429Z,21.35
2022-11-20T23:14:27.455Z,19.15
2022-11-20T23:19:31.023Z,20.52
2022-11-20T23:24:35.587Z,21.65
2022-11-20T23:29:38.776Z,24.17
2022-11-20T23:34:41.942Z,20.75
2022-11-20T23:39:46.641Z,26.05
2022-11-20T23:44:49.979Z,21.08
2022-11-20T23:49:53.269Z,23.38
2022-11-20T23:54:57.823Z,20.92
